Brookside, Kentucky
Current Conditions -  °F | °C
As of 12:35 AM on Sunday 26 Oct 2014 (Local Time) from KI35 Reporting Station
Clear Clear  
Wind Chill: 52°   Ceiling: Unl
Heat Index: 52°   Visibility: 7mi
Dew Point: 52°   Wind: 7mph
Humidity: 100%   Direction: 100°E
Pressure: 30"   Gusts: NA
Location:  36.8576°N, 83.2467°W
Report Text: KI35 260435Z AUTO 10006KT 7SM CLR 11/11 A3000 RMK AO1
Loading
Personal Weather Stations






























Interactive Weather Map
Tropical Storm Tracking
New forecast layout! Learn more

10-Day Weather Forecast

Advertisements
Track Severe Weather on mobile